Time;durP1;ratioP1;P1;durP2;ratioP2;P2;SDS_P1;SDS_P2;PMS_P1;PMS_P2;Temp;Humidity;BMP_temperature;BMP_pressure;BME280_temperature;BME280_humidity;BME280_pressure;Samples;Min_cycle;Max_cycle;Signal;HPM_P1;HPM_P2
2021/03/26 00:01:26;;;;;;;42.70;23.25;;;9.20;82.60;;;;;;4945129;28;20504;-70
2021/03/26 00:03:54;;;;;;;42.03;24.00;;;9.10;82.50;;;;;;4953608;28;20073;-70
2021/03/26 00:06:25;;;;;;;48.35;23.00;;;9.00;83.00;;;;;;4955674;28;20502;-70
2021/03/26 00:08:51;;;;;;;40.67;23.90;;;8.90;83.20;;;;;;4953745;28;20027;-69
2021/03/26 00:11:19;;;;;;;45.60;23.52;;;9.00;83.50;;;;;;4960897;28;20453;-70
2021/03/26 00:13:46;;;;;;;38.42;22.17;;;8.90;83.50;;;;;;4952372;28;20478;-70
2021/03/26 00:16:11;;;;;;;44.30;22.75;;;8.90;83.80;;;;;;4953755;28;20070;-70
2021/03/26 00:18:40;;;;;;;43.05;24.52;;;8.90;83.90;;;;;;4953165;28;20490;-70
2021/03/26 00:21:07;;;;;;;42.67;23.55;;;8.90;84.20;;;;;;4953415;28;20039;-71
2021/03/26 00:23:35;;;;;;;45.28;24.20;;;8.80;84.30;;;;;;4954218;28;20490;-70
2021/03/26 00:26:02;;;;;;;44.38;22.60;;;8.70;84.50;;;;;;4953900;28;20038;-70
2021/03/26 00:28:28;;;;;;;40.05;23.40;;;8.70;84.60;;;;;;4953046;28;20030;-70
2021/03/26 00:30:54;;;;;;;43.65;22.98;;;8.60;84.80;;;;;;4953495;28;20490;-70
2021/03/26 00:33:19;;;;;;;43.90;24.13;;;8.50;85.30;;;;;;4953728;28;20045;-70
2021/03/26 00:35:46;;;;;;;44.47;23.35;;;8.50;85.40;;;;;;4952874;28;20021;-70
2021/03/26 00:38:11;;;;;;;47.65;25.33;;;8.50;85.30;;;;;;4953480;28;20027;-71
2021/03/26 00:40:37;;;;;;;44.17;23.23;;;8.50;84.90;;;;;;4960530;28;20023;-70
2021/03/26 00:43:03;;;;;;;52.15;25.88;;;8.50;85.10;;;;;;4953334;28;20059;-70
2021/03/26 00:45:33;;;;;;;46.05;23.25;;;8.40;85.40;;;;;;4953665;28;20042;-70
2021/03/26 00:47:59;;;;;;;44.17;23.58;;;8.40;86.10;;;;;;4953282;28;20023;-70
2021/03/26 00:50:41;;;;;;;50.30;25.67;;;8.50;85.60;;;;;;4952876;28;20368;-70
2021/03/26 00:53:28;;;;;;;44.10;24.50;;;8.40;85.60;;;;;;4953573;28;20035;-70
2021/03/26 00:55:55;;;;;;;43.28;24.23;;;8.50;85.80;;;;;;4953020;28;20027;-70
2021/03/26 00:58:22;;;;;;;43.28;24.08;;;8.50;86.00;;;;;;4955032;28;20023;-70
2021/03/26 01:00:50;;;;;;;44.10;22.35;;;8.50;85.90;;;;;;4959107;28;20118;-71
2021/03/26 01:03:16;;;;;;;45.95;25.98;;;8.40;86.10;;;;;;4957080;28;20031;-70
2021/03/26 01:05:50;;;;;;;47.10;25.88;;;8.30;86.40;;;;;;4956952;28;20134;-70
2021/03/26 01:08:16;;;;;;;47.75;24.50;;;8.40;86.40;;;;;;4957718;28;20382;-70
2021/03/26 01:10:51;;;;;;;47.20;24.85;;;8.40;86.40;;;;;;4966284;28;20130;-70
2021/03/26 01:13:17;;;;;;;45.75;23.52;;;8.50;85.90;;;;;;4957271;28;20799;-70
2021/03/26 01:15:45;;;;;;;44.97;24.52;;;8.40;86.60;;;;;;4956832;28;20081;-70
2021/03/26 01:18:27;;;;;;;41.47;24.55;;;8.40;86.40;;;;;;4956668;28;20094;-70
2021/03/26 01:20:56;;;;;;;45.33;23.05;;;8.40;86.50;;;;;;4953224;28;20093;-70
2021/03/26 01:23:22;;;;;;;42.88;22.73;;;8.40;86.70;;;;;;4957013;28;20035;-70
2021/03/26 01:25:48;;;;;;;47.00;24.67;;;8.30;87.20;;;;;;4956999;28;20035;-70
2021/03/26 01:28:18;;;;;;;45.60;23.20;;;8.30;87.30;;;;;;4956925;28;20102;-70
2021/03/26 01:30:46;;;;;;;44.90;23.67;;;8.30;87.50;;;;;;4959181;28;20035;-70
2021/03/26 01:33:12;;;;;;;42.47;23.13;;;8.30;87.50;;;;;;4958298;28;20038;-70
2021/03/26 01:35:39;;;;;;;49.33;25.25;;;8.30;87.30;;;;;;4956786;28;20019;-70
2021/03/26 01:38:06;;;;;;;47.10;25.48;;;8.30;87.50;;;;;;4956355;28;20054;-69
2021/03/26 01:40:47;;;;;;;43.72;24.42;;;8.20;87.70;;;;;;4956406;28;20038;-70
2021/03/26 01:43:18;;;;;;;44.97;23.13;;;8.20;88.00;;;;;;4963582;28;20033;-70
2021/03/26 01:45:45;;;;;;;46.67;24.40;;;8.20;88.30;;;;;;4956313;28;20043;-70
2021/03/26 01:48:19;;;;;;;45.88;23.88;;;8.20;88.30;;;;;;4956459;28;20034;-70
2021/03/26 01:50:45;;;;;;;44.60;22.67;;;8.10;88.40;;;;;;4963127;28;20404;-70
2021/03/26 01:53:11;;;;;;;47.00;24.88;;;8.20;88.40;;;;;;4962372;28;20027;-70
2021/03/26 01:55:41;;;;;;;45.70;25.60;;;8.10;88.50;;;;;;4956597;28;20118;-70
2021/03/26 01:58:09;;;;;;;42.75;23.70;;;8.10;88.70;;;;;;4963168;28;20356;-70
2021/03/26 02:00:45;;;;;;;46.80;22.15;;;8.00;88.70;;;;;;4955596;28;20027;-70
2021/03/26 02:03:19;;;;;;;47.72;23.23;;;8.10;88.30;;;;;;4955758;28;20027;-70
2021/03/26 02:05:47;;;;;;;42.47;23.63;;;8.00;88.50;;;;;;4955878;28;20159;-70
2021/03/26 02:08:22;;;;;;;49.80;23.40;;;8.00;88.50;;;;;;4955820;28;20038;-70
2021/03/26 02:10:47;;;;;;;48.90;24.33;;;7.90;88.90;;;;;;4959954;28;20035;-70
2021/03/26 02:13:32;;;;;;;45.67;23.52;;;7.90;89.20;;;;;;4956044;28;20033;-70
2021/03/26 02:15:59;;;;;;;47.65;24.42;;;8.00;89.40;;;;;;4956114;28;20478;-70
2021/03/26 02:18:31;;;;;;;48.17;25.23;;;8.00;89.40;;;;;;4955590;28;20483;-69
2021/03/26 02:21:02;;;;;;;51.53;26.02;;;8.00;89.40;;;;;;4959782;28;20600;-70
2021/03/26 02:23:29;;;;;;;43.28;24.08;;;8.00;89.30;;;;;;4961528;28;20078;-70
2021/03/26 02:25:58;;;;;;;41.17;23.98;;;7.80;89.80;;;;;;4955439;28;20028;-70
2021/03/26 02:28:25;;;;;;;41.47;22.38;;;7.70;90.00;;;;;;4962663;28;20031;-70
2021/03/26 02:30:56;;;;;;;46.70;22.92;;;7.70;90.10;;;;;;4955275;28;20027;-70
2021/03/26 02:33:24;;;;;;;47.92;24.15;;;7.70;90.10;;;;;;4956097;28;20351;-70
2021/03/26 02:36:11;;;;;;;43.58;23.35;;;7.70;90.10;;;;;;4955215;28;20114;-70
2021/03/26 02:38:38;;;;;;;45.00;25.13;;;7.70;90.10;;;;;;4953059;28;20023;-70
2021/03/26 02:41:33;;;;;;;52.10;26.42;;;7.90;90.20;;;;;;4962581;28;20028;-70
2021/03/26 02:44:13;;;;;;;45.50;23.55;;;8.10;89.90;;;;;;4955253;28;20086;-70
2021/03/26 02:47:00;;;;;;;47.85;23.02;;;7.90;89.80;;;;;;4949633;28;20094;-70
2021/03/26 02:49:47;;;;;;;45.67;23.38;;;7.80;90.10;;;;;;4950169;28;20031;-70
2021/03/26 02:52:55;;;;;;;41.20;22.23;;;7.70;90.20;;;;;;4955395;28;20031;-70
2021/03/26 02:55:38;;;;;;;46.03;24.63;;;7.80;90.30;;;;;;4948029;28;20055;-70
2021/03/26 02:58:21;;;;;;;48.33;26.00;;;7.90;90.10;;;;;;4958940;28;20078;-70
2021/03/26 03:01:27;;;;;;;48.33;24.50;;;7.90;90.20;;;;;;4959094;28;20023;-71
2021/03/26 03:03:59;;;;;;;43.45;23.08;;;7.80;90.30;;;;;;4937858;28;20031;-70
2021/03/26 03:06:30;;;;;;;49.88;22.80;;;7.90;90.50;;;;;;4962526;28;20047;-69
2021/03/26 03:08:57;;;;;;;48.53;23.85;;;7.90;90.40;;;;;;4954365;28;20043;-70
2021/03/26 03:11:53;;;;;;;42.92;22.30;;;7.90;90.40;;;;;;4961727;28;20031;-70
2021/03/26 03:14:24;;;;;;;;;;;7.80;90.40;;;;;;4944775;28;20138;-70
2021/03/26 03:16:55;;;;;;;42.97;22.13;;;7.70;90.70;;;;;;4954779;28;19910;-70
2021/03/26 03:19:47;;;;;;;49.78;23.95;;;7.80;90.80;;;;;;4954789;28;20041;-70
2021/03/26 03:22:40;;;;;;;45.00;23.33;;;7.80;91.00;;;;;;4954979;28;20027;-69
2021/03/26 03:25:14;;;;;;;48.17;24.05;;;7.80;91.00;;;;;;4957960;28;20122;-69
2021/03/26 03:27:52;;;;;;;39.97;23.30;;;7.80;91.00;;;;;;4961326;28;20034;-70
2021/03/26 03:30:27;;;;;;;47.33;24.58;;;7.70;91.20;;;;;;4954455;28;20126;-71
2021/03/26 03:33:18;;;;;;;46.08;24.27;;;7.90;91.10;;;;;;4954373;28;20027;-70
2021/03/26 03:36:01;;;;;;;41.20;23.30;;;7.90;91.00;;;;;;4954364;28;20385;-69
2021/03/26 03:38:50;;;;;;;43.05;22.67;;;7.80;91.10;;;;;;4962291;28;20451;-70
2021/03/26 03:41:46;;;;;;;50.30;24.85;;;7.80;91.30;;;;;;4947508;28;20043;-69
2021/03/26 03:44:39;;;;;;;45.55;23.70;;;7.90;91.10;;;;;;4943703;28;20045;-69
2021/03/26 03:47:13;;;;;;;50.97;26.42;;;7.50;91.70;;;;;;4953938;28;20090;-69
2021/03/26 03:50:01;;;;;;;52.55;26.85;;;7.60;91.60;;;;;;4953996;28;20023;-69
2021/03/26 03:52:34;;;;;;;44.05;24.55;;;7.60;91.50;;;;;;4949670;28;20034;-70
2021/03/26 03:55:18;;;;;;;51.35;26.20;;;7.70;91.50;;;;;;4955779;28;20031;-70
2021/03/26 03:58:17;;;;;;;50.17;25.42;;;7.70;91.50;;;;;;4948886;28;20093;-70
2021/03/26 04:01:12;;;;;;;42.03;23.20;;;7.70;91.50;;;;;;4948558;28;20042;-70
2021/03/26 04:03:37;;;;;;;;;;;7.70;91.60;;;;;;4946512;28;20039;-70
2021/03/26 04:06:16;;;;;;;40.67;23.95;;;7.70;91.80;;;;;;4946941;28;19918;-70
2021/03/26 04:08:48;;;;;;;44.83;24.20;;;7.50;91.70;;;;;;4946732;28;20518;-70
2021/03/26 04:11:35;;;;;;;46.13;24.17;;;7.50;92.20;;;;;;4946561;28;20023;-70
2021/03/26 04:14:30;;;;;;;47.58;24.52;;;7.30;92.20;;;;;;4946338;28;20035;-70
2021/03/26 04:17:05;;;;;;;41.47;23.27;;;7.30;92.60;;;;;;4946231;28;20035;-70
2021/03/26 04:19:35;;;;;;;41.90;22.02;;;7.30;92.50;;;;;;4942572;28;20023;-70
2021/03/26 04:22:09;;;;;;;45.17;24.92;;;7.30;92.60;;;;;;4946464;28;20027;-70
2021/03/26 04:24:49;;;;;;;46.35;25.10;;;7.30;92.70;;;;;;4946522;28;20063;-70
2021/03/26 04:27:42;;;;;;;45.53;24.67;;;7.20;92.80;;;;;;4947056;28;20518;-70
2021/03/26 04:30:16;;;;;;;40.95;24.40;;;7.20;93.00;;;;;;4945043;28;20406;-70
2021/03/26 04:32:42;;;;;;;44.80;23.95;;;7.20;93.10;;;;;;4947011;28;20058;-70
2021/03/26 04:35:20;;;;;;;;;;;;;;;;;;;;;
2021/03/26 04:38:23;;;;;;;42.55;23.40;;;7.20;93.00;;;;;;4945475;28;20567;-70
2021/03/26 04:40:57;;;;;;;43.88;23.27;;;7.10;93.30;;;;;;4940834;28;20038;-70
2021/03/26 04:43:28;;;;;;;41.97;24.02;;;7.10;93.60;;;;;;4946857;28;20090;-70
2021/03/26 04:46:21;;;;;;;40.88;24.08;;;7.20;93.50;;;;;;4946376;28;20090;-70
2021/03/26 04:49:01;;;;;;;37.20;21.70;;;7.20;93.40;;;;;;4940964;28;20023;-70
2021/03/26 04:51:40;;;;;;;44.10;25.33;;;7.20;93.60;;;;;;4939894;28;20547;-70
2021/03/26 04:54:27;;;;;;;43.70;24.65;;;7.20;93.50;;;;;;4946203;28;20038;-70
2021/03/26 04:57:11;;;;;;;42.53;23.60;;;7.20;93.50;;;;;;4946286;28;20351;-70
2021/03/26 04:59:43;;;;;;;47.13;22.38;;;7.10;93.70;;;;;;4940036;28;20039;-70
2021/03/26 05:02:14;;;;;;;46.25;22.63;;;7.20;93.70;;;;;;4946079;28;20087;-70
2021/03/26 05:04:43;;;;;;;44.20;23.40;;;7.10;93.70;;;;;;4946767;28;20082;-70
2021/03/26 05:07:23;;;;;;;40.50;23.05;;;7.10;93.70;;;;;;4946851;28;20889;-70
2021/03/26 05:09:54;;;;;;;43.30;24.02;;;7.00;94.00;;;;;;4945345;28;20514;-70
2021/03/26 05:12:26;;;;;;;49.88;24.50;;;7.10;94.10;;;;;;4946462;28;20023;-70
2021/03/26 05:15:01;;;;;;;46.65;24.27;;;7.20;93.70;;;;;;4946154;28;20035;-70
2021/03/26 05:17:50;;;;;;;43.45;22.77;;;7.10;93.80;;;;;;4939343;28;20082;-70
2021/03/26 05:20:44;;;;;;;44.30;24.63;;;7.20;93.80;;;;;;4947291;28;20059;-70
2021/03/26 05:23:28;;;;;;;40.40;24.30;;;7.30;93.60;;;;;;4947195;28;20027;-70
2021/03/26 05:25:58;;;;;;;47.37;23.83;;;7.40;93.30;;;;;;4946132;28;20070;-70
2021/03/26 05:28:27;;;;;;;42.53;21.73;;;7.30;93.30;;;;;;4950215;28;20791;-70
2021/03/26 05:30:54;;;;;;;46.78;23.35;;;7.20;93.70;;;;;;4946040;28;20035;-70
2021/03/26 05:33:33;;;;;;;44.58;24.52;;;7.20;93.90;;;;;;4946062;28;20031;-70
2021/03/26 05:36:10;;;;;;;51.33;24.35;;;7.00;94.20;;;;;;4945693;28;20090;-70
2021/03/26 05:38:45;;;;;;;43.60;22.92;;;7.00;94.20;;;;;;4944214;28;20035;-70
2021/03/26 05:41:42;;;;;;;44.17;24.23;;;7.00;94.20;;;;;;4946807;28;20057;-70
2021/03/26 05:44:34;;;;;;;45.85;22.77;;;7.20;94.10;;;;;;4946248;28;20042;-70
2021/03/26 05:47:19;;;;;;;45.88;24.17;;;7.30;93.70;;;;;;4947844;28;20035;-70
2021/03/26 05:50:06;;;;;;;43.58;22.17;;;7.40;93.60;;;;;;4945066;28;20845;-70
2021/03/26 05:53:01;;;;;;;42.58;22.33;;;7.40;93.50;;;;;;4942139;28;20066;-70
2021/03/26 05:55:39;;;;;;;44.13;22.80;;;7.40;93.40;;;;;;4942392;28;20418;-70
2021/03/26 05:58:29;;;;;;;48.47;21.85;;;7.60;93.30;;;;;;4956644;28;20023;-70
2021/03/26 06:01:40;;;;;;;40.20;21.80;;;7.60;93.30;;;;;;4948831;28;20513;-70
2021/03/26 06:04:20;;;;;;;44.55;22.08;;;7.50;93.20;;;;;;4944540;28;20043;-70
2021/03/26 06:07:23;;;;;;;44.25;23.40;;;7.40;93.50;;;;;;4953492;28;20050;-70
2021/03/26 06:09:55;;;;;;;43.72;23.40;;;7.40;93.80;;;;;;4944456;28;20091;-70
2021/03/26 06:12:30;;;;;;;45.38;22.95;;;7.40;93.80;;;;;;4948980;28;20042;-70
2021/03/26 06:15:14;;;;;;;;;;;7.40;93.70;;;;;;4951269;28;20019;-69
2021/03/26 06:17:54;;;;;;;42.90;21.33;;;7.40;93.60;;;;;;4944856;28;19918;-70
2021/03/26 06:20:28;;;;;;;42.00;23.85;;;7.40;94.30;;;;;;4948831;28;20037;-72
2021/03/26 06:23:18;;;;;;;41.55;23.52;;;7.30;94.80;;;;;;4946666;28;20031;-71
2021/03/26 06:26:07;;;;;;;36.97;20.35;;;7.20;94.30;;;;;;4967325;28;20047;-71
2021/03/26 06:28:42;;;;;;;42.47;23.25;;;7.30;94.90;;;;;;4946335;28;20075;-71
2021/03/26 06:31:14;;;;;;;39.95;21.60;;;7.20;94.80;;;;;;4946790;28;20124;-71
2021/03/26 06:34:16;;;;;;;43.95;24.80;;;7.30;94.70;;;;;;4947823;28;20027;-70
2021/03/26 06:37:13;;;;;;;38.30;20.65;;;7.30;94.80;;;;;;4947664;28;21121;-70
2021/03/26 06:39:51;;;;;;;41.42;22.05;;;7.30;95.30;;;;;;4947484;28;20496;-70
2021/03/26 06:42:45;;;;;;;41.70;21.85;;;7.30;95.10;;;;;;4947472;28;20090;-70
2021/03/26 06:45:38;;;;;;;40.75;21.00;;;7.20;94.70;;;;;;4947602;28;20043;-71
2021/03/26 06:48:14;;;;;;;47.85;27.38;;;7.20;94.80;;;;;;4947742;28;20023;-70
2021/03/26 06:51:15;;;;;;;38.28;22.38;;;7.20;95.90;;;;;;4947972;28;20031;-70
2021/03/26 06:53:47;;;;;;;40.00;22.15;;;7.20;95.50;;;;;;4946599;28;20467;-70
2021/03/26 06:56:28;;;;;;;40.47;22.60;;;7.40;94.70;;;;;;4947499;28;20114;-71
2021/03/26 06:59:22;;;;;;;38.08;21.33;;;7.50;94.30;;;;;;4946471;28;20054;-71
2021/03/26 07:02:22;;;;;;;38.13;20.75;;;7.60;93.60;;;;;;4945768;29;20047;-71
2021/03/26 07:05:26;;;;;;;38.80;20.75;;;7.70;93.50;;;;;;4946748;28;20031;-70
2021/03/26 07:07:58;;;;;;;38.25;20.88;;;7.70;93.80;;;;;;4917598;29;20681;-71
2021/03/26 07:10:36;;;;;;;43.28;20.92;;;7.80;93.80;;;;;;4922791;29;20027;-70
2021/03/26 07:13:21;;;;;;;37.17;20.45;;;7.80;93.70;;;;;;4927149;29;20173;-71
2021/03/26 07:16:17;;;;;;;45.97;22.77;;;7.90;93.40;;;;;;4928066;29;20032;-70
2021/03/26 07:18:45;;;;;;;38.50;21.40;;;8.10;93.20;;;;;;4927926;29;20031;-70
2021/03/26 07:21:46;;;;;;;36.05;22.02;;;8.10;93.20;;;;;;4934395;28;20362;-71
2021/03/26 07:24:29;;;;;;;47.15;22.77;;;8.20;93.40;;;;;;4946853;28;20015;-70
2021/03/26 07:27:06;;;;;;;42.88;21.55;;;8.20;93.70;;;;;;4946380;28;20039;-71
2021/03/26 07:29:54;;;;;;;40.92;23.52;;;8.00;93.90;;;;;;4946972;28;20106;-70
2021/03/26 07:32:36;;;;;;;41.05;21.80;;;8.00;93.90;;;;;;4946347;28;20478;-70
2021/03/26 07:35:24;;;;;;;37.22;20.88;;;8.10;93.80;;;;;;4945841;28;20106;-71
2021/03/26 07:38:20;;;;;;;44.42;23.00;;;8.20;93.40;;;;;;4946675;28;20039;-71
2021/03/26 07:41:15;;;;;;;40.70;21.30;;;8.20;93.30;;;;;;4946573;28;20035;-70
2021/03/26 07:44:09;;;;;;;39.90;19.58;;;8.20;94.30;;;;;;4946466;28;20067;-70
2021/03/26 07:46:58;;;;;;;33.33;18.60;;;8.20;94.30;;;;;;4944442;28;20122;-71
2021/03/26 07:49:42;;;;;;;40.65;21.05;;;8.10;93.90;;;;;;4946353;28;20042;-70
2021/03/26 07:52:29;;;;;;;37.58;19.58;;;8.30;93.80;;;;;;4946615;28;20397;-70
2021/03/26 07:55:08;;;;;;;40.10;22.15;;;8.30;93.50;;;;;;4945581;28;20035;-70
2021/03/26 07:58:18;;;;;;;37.95;19.85;;;8.40;93.40;;;;;;4946354;28;20024;-72
2021/03/26 08:01:09;;;;;;;39.45;22.13;;;8.60;92.80;;;;;;4915533;29;20029;-74
2021/03/26 08:04:06;;;;;;;38.03;21.80;;;8.50;92.60;;;;;;4905235;29;20028;-72
2021/03/26 08:07:00;;;;;;;39.25;20.90;;;8.70;92.70;;;;;;4939874;28;20055;-70
2021/03/26 08:09:31;;;;;;;44.05;21.48;;;8.90;92.70;;;;;;4946039;28;20035;-72
2021/03/26 08:12:08;;;;;;;36.83;20.02;;;9.00;92.50;;;;;;4946381;29;20042;-70
2021/03/26 08:14:53;;;;;;;43.17;23.00;;;9.10;92.60;;;;;;4945677;28;20090;-71
2021/03/26 08:17:24;;;;;;;41.95;23.42;;;9.10;92.10;;;;;;4945944;28;20373;-70
2021/03/26 08:20:24;;;;;;;42.67;23.65;;;9.20;92.20;;;;;;4945454;28;20043;-70
2021/03/26 08:23:17;;;;;;;39.78;22.25;;;9.20;92.10;;;;;;4945590;28;20027;-70
2021/03/26 08:26:12;;;;;;;38.00;21.55;;;9.30;92.10;;;;;;4941421;28;20471;-69
2021/03/26 08:28:51;;;;;;;36.97;21.13;;;9.40;92.50;;;;;;4946015;29;20024;-70
2021/03/26 08:31:56;;;;;;;39.38;21.08;;;9.50;92.10;;;;;;4946185;28;20031;-70
2021/03/26 08:34:27;;;;;;;40.97;20.93;;;9.60;92.30;;;;;;4923736;28;20040;-70
2021/03/26 08:37:41;;;;;;;43.40;23.67;;;9.70;91.70;;;;;;4944587;28;20062;-70
2021/03/26 08:40:15;;;;;;;43.88;21.88;;;9.70;91.70;;;;;;4945829;28;20076;-70
2021/03/26 08:42:44;;;;;;;37.73;21.10;;;9.90;91.50;;;;;;4946308;28;20034;-69
2021/03/26 08:45:12;;;;;;;46.50;23.38;;;9.90;91.00;;;;;;4945655;28;20078;-70
2021/03/26 08:47:50;;;;;;;38.88;21.92;;;10.00;91.00;;;;;;4945759;28;20501;-70
2021/03/26 08:50:37;;;;;;;39.83;23.20;;;10.00;91.20;;;;;;4946469;28;20051;-70
2021/03/26 08:53:35;;;;;;;42.90;23.17;;;10.20;91.10;;;;;;4945999;28;20495;-70
2021/03/26 08:56:06;;;;;;;38.88;20.75;;;10.30;91.00;;;;;;4937112;28;20086;-70
2021/03/26 08:59:03;;;;;;;43.55;21.80;;;10.30;90.80;;;;;;4945948;28;20032;-70
2021/03/26 09:01:50;;;;;;;40.20;22.25;;;10.30;91.20;;;;;;4945869;28;20035;-70
2021/03/26 09:04:40;;;;;;;34.55;21.73;;;10.40;90.70;;;;;;4945984;28;20151;-70
2021/03/26 09:07:40;;;;;;;42.88;21.77;;;10.50;90.50;;;;;;4945724;28;20051;-69
2021/03/26 09:10:33;;;;;;;37.90;22.33;;;10.60;90.70;;;;;;4945088;28;20035;-70
2021/03/26 09:13:10;;;;;;;36.38;21.25;;;10.70;90.40;;;;;;4944320;28;20572;-70
2021/03/26 09:16:02;;;;;;;40.65;21.42;;;10.70;90.10;;;;;;4945570;28;20163;-70
2021/03/26 09:18:37;;;;;;;40.72;20.95;;;11.30;90.20;;;;;;4945240;28;20166;-70
2021/03/26 09:21:40;;;;;;;40.53;21.05;;;14.30;83.80;;;;;;4946120;28;20031;-70
2021/03/26 09:24:39;;;;;;;36.42;21.02;;;15.90;79.40;;;;;;4949556;28;20051;-70
2021/03/26 09:27:17;;;;;;;43.03;21.88;;;16.30;77.30;;;;;;4948637;28;20062;-70
2021/03/26 09:30:00;;;;;;;40.92;21.15;;;17.00;75.30;;;;;;4949405;28;20019;-70
2021/03/26 09:32:29;;;;;;;39.25;20.75;;;17.50;72.80;;;;;;4949769;28;20030;-70
2021/03/26 09:35:13;;;;;;;39.15;22.80;;;17.40;71.10;;;;;;4949632;28;20465;-70
2021/03/26 09:37:58;;;;;;;41.53;23.10;;;17.20;70.60;;;;;;4949204;28;20054;-70
2021/03/26 09:40:44;;;;;;;40.80;22.55;;;17.70;70.10;;;;;;4949185;28;20023;-70
2021/03/26 09:43:24;;;;;;;41.50;23.80;;;17.90;69.40;;;;;;4948747;28;20130;-70
2021/03/26 09:46:10;;;;;;;40.78;21.88;;;17.70;69.60;;;;;;4949090;28;20035;-70
2021/03/26 09:49:18;;;;;;;43.05;24.13;;;17.90;68.20;;;;;;4948798;28;20060;-70
2021/03/26 09:51:43;;;;;;;40.63;23.17;;;17.60;68.40;;;;;;4937471;28;20071;-70
2021/03/26 09:54:35;;;;;;;41.50;22.95;;;16.60;68.40;;;;;;4948900;28;20031;-70
2021/03/26 09:57:04;;;;;;;45.03;23.35;;;15.00;70.60;;;;;;4948997;28;20138;-70
2021/03/26 09:59:54;;;;;;;44.63;22.90;;;14.10;73.80;;;;;;4948504;28;20038;-70
2021/03/26 10:02:24;;;;;;;42.97;23.00;;;13.50;75.10;;;;;;4948968;28;20027;-71
2021/03/26 10:04:59;;;;;;;42.05;22.60;;;13.30;74.60;;;;;;4948557;28;20027;-70
2021/03/26 10:07:45;;;;;;;47.17;24.67;;;13.20;76.50;;;;;;4948714;28;20054;-70
2021/03/26 10:12:59;;;;;;;48.20;24.33;;;13.40;75.40;;;;;;4931555;28;20036;-70
2021/03/26 10:15:31;;;;;;;37.55;22.98;;;13.50;75.40;;;;;;4948627;28;20078;-70
2021/03/26 10:18:20;;;;;;;41.95;24.55;;;13.60;75.60;;;;;;4948147;28;20394;-70
2021/03/26 10:20:54;;;;;;;44.83;23.70;;;13.60;76.00;;;;;;4919134;29;20047;-70
2021/03/26 10:23:37;;;;;;;48.85;23.77;;;13.70;74.70;;;;;;4929323;28;20100;-70
2021/03/26 10:26:25;;;;;;;44.22;23.27;;;13.80;76.10;;;;;;4947956;28;20043;-70
2021/03/26 10:29:04;;;;;;;45.38;23.52;;;14.00;74.90;;;;;;4948108;29;20475;-70
2021/03/26 10:31:34;;;;;;;44.65;25.67;;;13.90;73.30;;;;;;4948577;28;20660;-70
2021/03/26 10:34:06;;;;;;;47.88;25.05;;;13.90;74.90;;;;;;4946885;28;20532;-70
2021/03/26 10:36:50;;;;;;;46.67;24.63;;;14.40;73.70;;;;;;4948336;28;20056;-70
2021/03/26 10:39:35;;;;;;;43.63;23.63;;;14.40;73.30;;;;;;4948013;28;20032;-70
2021/03/26 10:42:15;;;;;;;48.20;25.45;;;14.20;74.90;;;;;;4948340;28;20030;-70
2021/03/26 10:45:02;;;;;;;46.50;26.00;;;14.30;73.60;;;;;;4948740;28;20040;-70
2021/03/26 10:47:39;;;;;;;52.38;24.90;;;14.50;73.30;;;;;;4947654;28;20023;-70
2021/03/26 10:50:35;;;;;;;47.33;23.77;;;14.60;72.90;;;;;;4947833;28;20640;-70
2021/03/26 10:53:06;;;;;;;;;;;14.80;72.50;;;;;;4948512;29;20026;-70
2021/03/26 10:55:44;;;;;;;50.80;27.15;;;14.50;72.10;;;;;;4947933;28;19917;-70
2021/03/26 10:58:22;;;;;;;47.92;25.25;;;14.70;72.50;;;;;;4947739;28;20027;-70
2021/03/26 11:01:05;;;;;;;46.70;25.27;;;14.70;73.10;;;;;;4948175;28;20032;-70
2021/03/26 11:03:52;;;;;;;51.75;30.52;;;14.90;72.30;;;;;;4948005;28;20500;-70
2021/03/26 11:06:36;;;;;;;58.33;29.23;;;15.10;72.00;;;;;;4947940;28;20055;-70
2021/03/26 11:09:11;;;;;;;50.53;29.05;;;15.20;72.10;;;;;;4945586;28;20043;-70
2021/03/26 11:12:03;;;;;;;54.65;29.83;;;15.20;71.30;;;;;;4947976;28;20105;-70
2021/03/26 11:14:47;;;;;;;55.25;29.10;;;15.30;72.00;;;;;;4947921;28;20031;-70
2021/03/26 11:17:18;;;;;;;57.42;31.75;;;15.70;72.30;;;;;;4947396;28;20549;-70
2021/03/26 11:20:05;;;;;;;55.78;32.80;;;15.80;70.10;;;;;;4945328;28;20037;-70
2021/03/26 11:22:34;;;;;;;60.55;30.92;;;15.90;69.70;;;;;;4944857;29;20031;-70
2021/03/26 11:25:31;;;;;;;60.30;32.78;;;16.00;70.00;;;;;;4945241;28;20106;-71
2021/03/26 11:27:57;;;;;;;57.92;32.33;;;16.00;68.60;;;;;;4942380;28;20046;-70
2021/03/26 11:30:44;;;;;;;64.60;34.50;;;16.20;69.40;;;;;;4947119;28;20031;-70
2021/03/26 11:33:40;;;;;;;55.33;30.58;;;16.30;69.10;;;;;;4947362;28;20793;-70
2021/03/26 11:36:40;;;;;;;58.10;31.38;;;16.60;67.70;;;;;;4947361;28;20058;-70
2021/03/26 11:39:11;;;;;;;62.30;32.05;;;17.10;65.40;;;;;;4946585;28;20050;-70
2021/03/26 11:41:51;;;;;;;54.55;30.73;;;17.10;65.70;;;;;;4946691;29;20034;-70
2021/03/26 11:44:20;;;;;;;60.25;31.80;;;16.90;64.60;;;;;;4946870;28;20027;-70
2021/03/26 11:46:55;;;;;;;55.83;30.67;;;17.00;66.00;;;;;;4946874;28;20066;-71
2021/03/26 11:49:35;;;;;;;49.97;28.45;;;17.40;66.00;;;;;;4946659;28;20094;-71
2021/03/26 11:52:21;;;;;;;47.97;25.63;;;17.50;64.40;;;;;;4937429;29;20019;-71
2021/03/26 11:54:59;;;;;;;46.88;28.08;;;17.70;63.80;;;;;;4934946;28;20475;-70
2021/03/26 11:57:31;;;;;;;51.20;28.20;;;17.70;64.10;;;;;;4946777;28;20038;-71
2021/03/26 12:00:17;;;;;;;51.08;28.02;;;17.80;65.40;;;;;;4946080;28;20024;-70
2021/03/26 12:02:44;;;;;;;53.95;28.23;;;17.90;65.90;;;;;;4946771;28;20023;-70
2021/03/26 12:05:27;;;;;;;46.88;28.67;;;17.80;65.80;;;;;;4946040;28;20533;-70
2021/03/26 12:08:09;;;;;;;61.53;31.80;;;17.90;66.40;;;;;;4945305;28;20055;-70
2021/03/26 12:10:47;;;;;;;52.38;30.40;;;17.80;66.20;;;;;;4940090;28;20063;-70
2021/03/26 12:13:27;;;;;;;56.20;32.38;;;17.60;66.10;;;;;;4945286;28;20565;-70
2021/03/26 12:16:09;;;;;;;47.10;28.67;;;17.80;66.80;;;;;;4946116;28;20027;-70
2021/03/26 12:19:05;;;;;;;47.10;26.15;;;17.90;65.10;;;;;;4946415;28;20102;-70
2021/03/26 12:21:34;;;;;;;50.20;29.27;;;17.80;64.70;;;;;;4946778;28;20061;-70
2021/03/26 12:24:14;;;;;;;49.00;28.08;;;17.90;64.70;;;;;;4945687;28;20031;-71
2021/03/26 12:26:55;;;;;;;49.08;29.95;;;18.10;64.60;;;;;;4945620;29;20031;-71
2021/03/26 12:29:49;;;;;;;47.80;27.42;;;18.20;64.80;;;;;;4943227;28;20045;-71
2021/03/26 12:32:34;;;;;;;46.85;27.13;;;18.30;64.40;;;;;;4945283;28;20126;-71
2021/03/26 12:35:06;;;;;;;53.70;29.35;;;18.50;64.90;;;;;;4945446;28;20039;-71
2021/03/26 12:37:58;;;;;;;51.17;28.38;;;18.70;65.70;;;;;;4946175;28;20122;-71
2021/03/26 12:40:56;;;;;;;48.92;26.92;;;18.70;64.20;;;;;;4937746;28;20039;-71
2021/03/26 12:43:25;;;;;;;48.63;28.02;;;18.60;63.30;;;;;;4946097;28;20115;-71
2021/03/26 12:46:16;;;;;;;45.67;26.15;;;18.60;63.80;;;;;;4945699;29;20172;-71
2021/03/26 12:48:51;;;;;;;46.45;28.15;;;18.60;63.70;;;;;;4946223;29;20034;-71
2021/03/26 12:51:23;;;;;;;46.22;25.30;;;18.50;63.70;;;;;;4946445;28;20024;-71
2021/03/26 12:54:13;;;;;;;50.20;26.83;;;18.30;63.20;;;;;;4944825;28;20059;-71
2021/03/26 12:56:51;;;;;;;57.80;27.60;;;18.40;63.50;;;;;;4928116;29;20038;-71
2021/03/26 12:59:43;;;;;;;47.72;27.63;;;18.50;63.40;;;;;;4931265;29;20156;-72
2021/03/26 13:02:28;;;;;;;45.28;26.98;;;18.40;63.60;;;;;;4930713;29;20971;-72
2021/03/26 13:04:56;;;;;;;41.42;23.60;;;18.50;63.80;;;;;;4936761;29;20034;-72
2021/03/26 13:07:29;;;;;;;52.67;25.20;;;18.50;62.30;;;;;;4947896;28;20090;-72
2021/03/26 13:10:40;;;;;;;59.28;23.58;;;18.50;62.80;;;;;;4949196;28;20031;-72
2021/03/26 13:13:24;;;;;;;41.10;23.95;;;18.70;63.40;;;;;;4948925;28;20027;-72
2021/03/26 13:16:15;;;;;;;45.33;23.80;;;19.00;62.70;;;;;;4949012;29;20043;-72
2021/03/26 13:18:54;;;;;;;50.05;26.63;;;18.80;63.20;;;;;;4931117;28;20111;-72
2021/03/26 13:21:31;;;;;;;49.58;24.25;;;18.60;62.90;;;;;;4949284;28;20034;-72
2021/03/26 13:24:19;;;;;;;36.90;22.55;;;18.80;62.40;;;;;;4947954;28;20134;-72
2021/03/26 13:26:45;;;;;;;36.88;20.25;;;18.80;61.50;;;;;;4938102;28;20127;-72
2021/03/26 13:29:32;;;;;;;38.08;22.08;;;18.70;62.00;;;;;;4948682;28;20521;-72
2021/03/26 13:31:59;;;;;;;37.30;20.92;;;18.90;61.70;;;;;;4948872;28;20027;-72
2021/03/26 13:34:35;;;;;;;41.40;23.13;;;18.90;61.70;;;;;;4948749;28;20517;-72
2021/03/26 13:37:06;;;;;;;38.38;21.58;;;18.80;62.60;;;;;;4948658;28;20028;-72
2021/03/26 13:39:51;;;;;;;48.72;20.10;;;18.90;61.70;;;;;;4948514;28;20118;-72
2021/03/26 13:42:27;;;;;;;33.80;19.15;;;18.90;61.70;;;;;;4929154;29;20037;-72
2021/03/26 13:45:09;;;;;;;29.52;18.23;;;18.90;61.70;;;;;;4929546;29;20523;-72